Time;durP1;ratioP1;P1;durP2;ratioP2;P2;SDS_P1;SDS_P2;PMS_P1;PMS_P2;Temp;Humidity;BMP_temperature;BMP_pressure;BME280_temperature;BME280_humidity;BME280_pressure;Samples;Min_cycle;Max_cycle;Signal;HPM_P1;HPM_P2
2022/11/19 06:36:14;;;;;;;6.50;4.70;;;-1.00;99.90;;;;;;4816031;29;21190;-85
2022/11/19 06:46:46;;;;;;;5.88;4.90;;;-0.80;99.90;;;;;;4824094;29;20146;-85
2022/11/19 07:00:57;;;;;;;6.05;4.90;;;-1.20;99.90;;;;;;4832061;29;20041;-86
2022/11/19 07:33:17;;;;;;;6.50;5.47;;;-1.20;99.90;;;;;;4806306;29;20470;-86
2022/11/19 07:43:12;;;;;;;8.63;5.60;;;-1.20;99.90;;;;;;4804969;29;20046;-85
2022/11/19 07:46:16;;;;;;;6.32;5.55;;;-1.10;99.90;;;;;;4778464;29;20046;-85
2022/11/19 07:49:07;;;;;;;7.63;5.47;;;-0.90;99.90;;;;;;4823953;29;20078;-85
2022/11/19 07:51:55;;;;;;;6.50;5.82;;;-1.00;99.90;;;;;;4815248;29;20045;-84
2022/11/19 07:54:28;;;;;;;7.43;5.95;;;0.00;99.90;;;;;;4804496;29;20039;-84
2022/11/19 07:57:49;;;;;;;6.68;5.70;;;-1.00;99.90;;;;;;4816635;29;20486;-85
2022/11/19 08:00:36;;;;;;;6.40;5.30;;;-0.90;99.90;;;;;;4804826;29;20427;-84
2022/11/19 08:03:10;;;;;;;7.70;5.95;;;-0.60;99.90;;;;;;4810223;29;20097;-86
2022/11/19 08:05:48;;;;;;;7.65;6.25;;;-0.70;99.90;;;;;;4808565;29;20134;-85
2022/11/19 08:12:33;;;;;;;7.35;5.97;;;-0.80;99.90;;;;;;4810491;29;20060;-87
2022/11/19 08:19:54;;;;;;;6.35;5.53;;;-0.70;99.90;;;;;;4772353;30;20059;-85
2022/11/19 08:22:20;;;;;;;6.90;5.85;;;0.30;99.90;;;;;;4803612;29;20553;-84
2022/11/19 08:24:50;;;;;;;6.25;4.72;;;-0.70;99.90;;;;;;4811142;29;20053;-88
2022/11/19 08:27:16;;;;;;;7.22;5.57;;;-0.60;99.90;;;;;;4794889;29;20042;-85
2022/11/19 08:29:41;;;;;;;7.60;5.85;;;-0.60;99.90;;;;;;4813569;29;20062;-86
2022/11/19 08:32:07;;;;;;;8.52;5.72;;;-0.60;99.90;;;;;;4815135;29;20034;-85
2022/11/19 08:34:33;;;;;;;7.18;5.85;;;-0.50;99.90;;;;;;4815175;29;20047;-84
2022/11/19 08:36:58;;;;;;;6.53;5.60;;;-0.50;99.90;;;;;;4830120;29;20046;-87
2022/11/19 08:39:27;;;;;;;6.80;5.82;;;-0.20;99.90;;;;;;4814780;29;20046;-88
2022/11/19 08:44:37;;;;;;;7.25;6.55;;;-0.40;99.90;;;;;;4822699;29;20196;-84
2022/11/19 08:47:03;;;;;;;6.53;5.82;;;-0.40;99.90;;;;;;4806913;29;20414;-85
2022/11/19 08:49:28;;;;;;;7.00;5.95;;;-0.40;99.90;;;;;;4815002;29;20145;-88
2022/11/19 08:51:56;;;;;;;9.27;5.57;;;-0.30;99.90;;;;;;4809542;29;20038;-85
2022/11/19 08:54:22;;;;;;;7.22;5.05;;;-0.10;99.90;;;;;;4823951;29;20098;-86
2022/11/19 08:56:47;;;;;;;6.75;5.00;;;0.00;99.90;;;;;;4797286;29;20054;-87
2022/11/19 08:59:13;;;;;;;6.32;5.72;;;-0.10;99.90;;;;;;4797874;29;20102;-87
2022/11/19 09:01:40;;;;;;;6.93;6.22;;;-0.10;99.90;;;;;;4812048;29;20116;-87
2022/11/19 09:04:05;;;;;;;7.72;5.30;;;0.30;99.90;;;;;;4815560;29;20080;-86
2022/11/19 09:06:34;;;;;;;6.38;5.53;;;0.10;99.90;;;;;;4792888;29;20058;-87
2022/11/19 09:09:01;;;;;;;6.18;4.88;;;0.00;99.90;;;;;;4830168;29;20105;-87
2022/11/19 09:11:26;;;;;;;6.40;5.72;;;0.60;99.90;;;;;;4824150;29;20164;-85
2022/11/19 09:13:58;;;;;;;5.90;5.00;;;0.10;99.90;;;;;;4832467;29;20069;-85
2022/11/19 09:16:24;;;;;;;7.35;5.05;;;0.10;99.90;;;;;;4828339;29;20044;-86
2022/11/19 09:18:49;;;;;;;5.65;5.05;;;0.20;99.90;;;;;;4798199;29;20117;-87
2022/11/19 09:21:15;;;;;;;5.63;4.32;;;0.20;99.90;;;;;;4809152;29;20054;-86
2022/11/19 09:23:43;;;;;;;9.48;5.13;;;0.30;99.90;;;;;;4796804;29;20460;-86
2022/11/19 09:26:17;;;;;;;5.60;4.55;;;0.00;99.90;;;;;;4804290;29;20084;-83
2022/11/19 09:29:30;;;;;;;5.00;4.47;;;1.30;99.90;;;;;;4793424;29;20057;-86
2022/11/19 09:32:14;;;;;;;5.65;4.53;;;-0.10;99.90;;;;;;4823783;29;20115;-84
2022/11/19 09:34:40;;;;;;;5.55;4.85;;;0.80;99.90;;;;;;4803272;29;22024;-83
2022/11/19 09:37:30;;;;;;;5.80;4.85;;;0.50;99.90;;;;;;4812957;29;20046;-85
2022/11/19 09:39:59;;;;;;;5.03;4.50;;;0.60;99.90;;;;;;4809256;29;20101;-82
2022/11/19 09:42:44;;;;;;;6.78;5.60;;;0.60;99.90;;;;;;4808771;29;20118;-83
2022/11/19 09:45:40;;;;;;;4.95;4.45;;;0.60;99.90;;;;;;4807453;29;20103;-83
2022/11/19 09:48:42;;;;;;;7.32;5.95;;;0.60;99.90;;;;;;4829855;29;20132;-84
2022/11/19 09:52:08;;;;;;;6.30;5.10;;;0.70;99.90;;;;;;4787087;29;20122;-84
2022/11/19 09:54:35;;;;;;;7.47;5.03;;;0.70;99.90;;;;;;4783486;29;20055;-84
2022/11/19 09:57:07;;;;;;;4.72;4.28;;;1.20;99.90;;;;;;4824684;29;20109;-86
2022/11/19 09:59:40;;;;;;;5.85;4.57;;;0.70;99.90;;;;;;4787655;29;20129;-87
2022/11/19 10:02:23;;;;;;;8.45;5.22;;;0.70;99.90;;;;;;4837992;29;20045;-88
2022/11/19 10:04:50;;;;;;;6.70;5.88;;;1.50;99.90;;;;;;4822381;29;20038;-84
2022/11/19 10:07:53;;;;;;;5.30;4.72;;;0.80;99.90;;;;;;4801631;29;20436;-87
2022/11/19 10:10:40;;;;;;;5.07;4.53;;;0.80;99.90;;;;;;4808529;29;20385;-87
2022/11/19 10:13:11;;;;;;;6.25;4.57;;;0.80;99.90;;;;;;4812432;29;20206;-85
2022/11/19 10:15:58;;;;;;;6.28;5.45;;;0.90;99.90;;;;;;4815168;29;20045;-84
2022/11/19 10:18:29;;;;;;;4.72;4.30;;;0.50;99.90;;;;;;4810891;29;20077;-89
2022/11/19 10:21:21;;;;;;;6.00;4.82;;;1.10;99.90;;;;;;4819112;29;20130;-83
2022/11/19 10:23:59;;;;;;;4.68;4.25;;;1.00;99.90;;;;;;4819977;29;20553;-84
2022/11/19 10:26:39;;;;;;;5.82;4.65;;;1.10;99.90;;;;;;4816301;29;20054;-86
2022/11/19 10:29:24;;;;;;;5.32;4.38;;;2.60;99.90;;;;;;4821949;29;20086;-84
2022/11/19 10:31:50;;;;;;;5.47;4.20;;;1.20;99.90;;;;;;4821614;29;20069;-84
2022/11/19 10:34:26;;;;;;;5.78;4.63;;;1.30;99.90;;;;;;4799022;29;20706;-83
2022/11/19 10:37:09;;;;;;;4.95;4.43;;;1.30;99.90;;;;;;4792344;29;20395;-86
2022/11/19 10:39:38;;;;;;;6.15;4.25;;;1.30;99.90;;;;;;4806194;29;20043;-86
2022/11/19 10:54:13;;;;;;;4.15;3.75;;;1.50;99.90;;;;;;4829442;29;20177;-86
2022/11/19 10:56:40;;;;;;;5.13;4.28;;;1.60;99.90;;;;;;4794016;29;20429;-86
2022/11/19 10:59:11;;;;;;;4.68;3.85;;;1.70;99.90;;;;;;4793949;29;20051;-87
2022/11/19 11:01:41;;;;;;;4.60;3.72;;;1.80;99.90;;;;;;4806701;29;20600;-86
2022/11/19 11:04:15;;;;;;;3.90;3.50;;;1.90;99.90;;;;;;4818350;29;20078;-88
2022/11/19 11:06:55;;;;;;;6.07;4.00;;;2.80;99.90;;;;;;4806341;29;20050;-83
2022/11/19 11:09:28;;;;;;;3.65;3.20;;;2.10;99.90;;;;;;4803922;29;20050;-83
2022/11/19 11:14:51;;;;;;;4.72;3.83;;;2.70;99.90;;;;;;4802113;29;20571;-84
2022/11/19 11:17:29;;;;;;;4.30;3.35;;;2.90;99.90;;;;;;4819437;29;20564;-82
2022/11/19 11:19:59;;;;;;;5.72;3.90;;;2.60;99.90;;;;;;4800730;29;20067;-85
2022/11/19 11:22:26;;;;;;;5.32;3.97;;;2.60;99.90;;;;;;4814233;29;20457;-83
2022/11/19 11:24:56;;;;;;;4.13;3.72;;;2.80;99.90;;;;;;4800086;29;20409;-84
2022/11/19 11:27:29;;;;;;;3.92;3.40;;;2.90;99.90;;;;;;4820409;29;20109;-86
2022/11/19 11:30:36;;;;;;;3.67;3.38;;;3.00;99.90;;;;;;4804217;29;20103;-88
2022/11/19 12:03:52;;;;;;;3.03;2.72;;;2.90;99.90;;;;;;4768097;30;20089;-86
2022/11/19 12:06:51;;;;;;;4.38;3.22;;;2.80;99.90;;;;;;4762493;30;20431;-86
2022/11/19 12:09:30;;;;;;;5.53;3.42;;;2.80;99.90;;;;;;4774941;29;20050;-85
2022/11/19 12:12:19;;;;;;;4.72;3.67;;;2.80;99.90;;;;;;4786439;29;20051;-85
2022/11/19 12:15:01;;;;;;;4.03;3.50;;;2.70;99.90;;;;;;4784885;29;20108;-85
2022/11/19 12:17:49;;;;;;;4.25;3.25;;;2.80;99.90;;;;;;4786989;29;20062;-84
2022/11/19 12:20:41;;;;;;;4.50;4.07;;;2.70;99.90;;;;;;4786653;29;20061;-87
2022/11/19 12:23:44;;;;;;;4.15;3.40;;;2.80;99.90;;;;;;4814083;29;20058;-85
2022/11/19 12:26:34;;;;;;;4.07;3.67;;;2.80;99.90;;;;;;4810341;29;20045;-85
2022/11/19 12:29:17;;;;;;;3.95;3.55;;;2.80;99.90;;;;;;4814043;29;20076;-84
2022/11/19 12:32:02;;;;;;;3.35;3.05;;;2.90;99.90;;;;;;4820131;29;20046;-84
2022/11/19 12:34:54;;;;;;;4.53;3.92;;;2.90;99.90;;;;;;4808300;29;20842;-84
2022/11/19 12:37:53;;;;;;;4.43;3.70;;;2.80;99.90;;;;;;4806807;29;20133;-86
2022/11/19 12:40:52;;;;;;;3.60;3.05;;;2.90;99.90;;;;;;4809591;29;20053;-85
2022/11/19 12:43:38;;;;;;;4.95;3.95;;;2.90;99.90;;;;;;4815294;29;20057;-86
2022/11/19 12:46:41;;;;;;;4.68;3.40;;;2.90;99.90;;;;;;4807129;29;20118;-85
2022/11/19 12:49:22;;;;;;;4.30;3.45;;;3.00;99.90;;;;;;4800753;29;20053;-85
2022/11/19 12:52:31;;;;;;;4.03;3.25;;;3.00;99.90;;;;;;4810684;29;20056;-84
2022/11/19 12:55:24;;;;;;;4.05;3.63;;;2.90;99.90;;;;;;4826484;29;20039;-85
2022/11/19 12:58:24;;;;;;;3.55;2.90;;;2.90;99.90;;;;;;4824216;29;20042;-84
2022/11/19 13:01:04;;;;;;;3.40;2.60;;;3.30;99.90;;;;;;4801639;29;20106;-85
2022/11/19 13:04:07;;;;;;;3.85;3.05;;;2.90;99.90;;;;;;4793536;29;20039;-85
2022/11/19 13:07:16;;;;;;;4.00;2.72;;;2.90;99.90;;;;;;4820860;29;20052;-85
2022/11/19 13:09:44;;;;;;;4.10;3.08;;;2.90;99.90;;;;;;4808391;29;20046;-87
2022/11/19 13:12:36;;;;;;;3.50;2.88;;;2.90;99.90;;;;;;4805723;29;20043;-86
2022/11/19 13:15:43;;;;;;;3.47;2.67;;;2.90;99.90;;;;;;4804097;29;20125;-86
2022/11/19 13:18:20;;;;;;;3.28;2.60;;;2.30;99.90;;;;;;4805858;29;20068;-86
2022/11/19 13:20:54;;;;;;;5.22;3.03;;;2.90;99.90;;;;;;4807837;29;20046;-86
2022/11/19 13:23:51;;;;;;;5.82;2.92;;;2.90;99.90;;;;;;4819133;29;20057;-86
2022/11/19 13:26:22;;;;;;;3.80;2.67;;;2.80;99.90;;;;;;4790337;29;21846;-87
2022/11/19 13:28:58;;;;;;;3.63;3.08;;;2.80;99.90;;;;;;4819502;29;20034;-86
2022/11/19 13:31:47;;;;;;;3.63;3.00;;;2.90;99.90;;;;;;4824938;29;20133;-86
2022/11/19 13:34:25;;;;;;;4.97;3.20;;;2.90;99.90;;;;;;4808332;29;20057;-86
2022/11/19 13:37:13;;;;;;;3.83;2.95;;;2.80;99.90;;;;;;4789016;29;20091;-85
2022/11/19 13:39:52;;;;;;;7.28;3.13;;;2.90;99.90;;;;;;4822892;29;20509;-85
2022/11/19 13:45:05;;;;;;;3.42;2.80;;;2.80;99.90;;;;;;4805800;29;20050;-86
2022/11/19 13:47:49;;;;;;;7.00;3.22;;;2.90;99.90;;;;;;4807704;29;20134;-86
2022/11/19 13:50:21;;;;;;;2.50;2.13;;;2.90;99.90;;;;;;4824826;29;20062;-86
2022/11/19 13:53:08;;;;;;;3.63;2.63;;;2.90;99.90;;;;;;4806068;29;20042;-86
2022/11/19 13:55:37;;;;;;;4.03;2.88;;;2.90;99.90;;;;;;4817637;29;20057;-87
2022/11/19 13:58:21;;;;;;;4.97;2.33;;;2.80;99.90;;;;;;4803994;29;20089;-86
2022/11/19 14:01:28;;;;;;;4.13;2.47;;;2.80;99.90;;;;;;4821660;29;20046;-86
2022/11/19 14:04:09;;;;;;;2.92;2.20;;;2.90;99.90;;;;;;4810989;29;20056;-86
2022/11/19 14:07:18;;;;;;;2.95;2.30;;;2.80;99.90;;;;;;4819139;29;20050;-86
2022/11/19 14:10:14;;;;;;;4.85;2.83;;;2.90;99.90;;;;;;4817996;29;20065;-86
2022/11/19 14:12:57;;;;;;;3.33;3.00;;;2.80;99.90;;;;;;4804758;29;20434;-86
2022/11/19 14:27:28;;;;;;;3.38;2.60;;;2.80;99.90;;;;;;4820868;29;20535;-85
2022/11/19 14:30:05;;;;;;;3.20;2.05;;;2.80;99.90;;;;;;4806796;29;20099;-85
2022/11/19 14:32:40;;;;;;;2.95;2.35;;;2.80;99.90;;;;;;4802355;29;20084;-86
2022/11/19 14:35:24;;;;;;;3.00;2.63;;;2.70;99.90;;;;;;4819195;29;20043;-85
2022/11/19 14:38:19;;;;;;;3.80;2.47;;;2.70;99.90;;;;;;4809627;29;20798;-85
2022/11/19 14:40:45;;;;;;;3.97;2.50;;;2.60;99.90;;;;;;4822703;29;20117;-85
2022/11/19 14:46:03;;;;;;;2.70;2.45;;;2.50;99.90;;;;;;4820857;29;20050;-85
2022/11/19 14:48:39;;;;;;;3.00;2.67;;;2.70;99.90;;;;;;4800994;29;20129;-86
2022/11/19 14:51:16;;;;;;;4.03;3.03;;;2.50;99.90;;;;;;4803742;29;20038;-86
2022/11/19 14:53:56;;;;;;;3.63;2.55;;;2.50;99.90;;;;;;4820398;29;20042;-86
2022/11/19 14:56:22;;;;;;;3.47;3.13;;;2.50;99.90;;;;;;4803111;29;20045;-86
2022/11/19 14:59:09;;;;;;;5.80;3.00;;;3.60;99.90;;;;;;4785297;29;20050;-86
2022/11/19 15:01:48;;;;;;;3.10;2.75;;;2.40;99.90;;;;;;4818105;29;20772;-86
2022/11/19 15:04:15;;;;;;;4.30;3.10;;;2.40;99.90;;;;;;4789655;29;20153;-85
2022/11/19 15:06:43;;;;;;;3.25;2.88;;;3.30;99.90;;;;;;4792408;29;20107;-86
2022/11/19 15:09:09;;;;;;;4.05;3.03;;;2.30;99.90;;;;;;4805687;29;20042;-86
2022/11/19 15:11:57;;;;;;;6.50;3.42;;;2.20;99.90;;;;;;4823493;29;20413;-86
2022/11/19 15:14:32;;;;;;;4.18;3.78;;;2.20;99.90;;;;;;4818840;29;20722;-86
2022/11/19 15:17:03;;;;;;;3.85;2.85;;;2.10;99.90;;;;;;4817367;29;20069;-86
2022/11/19 15:20:07;;;;;;;5.63;3.67;;;3.00;99.90;;;;;;4807517;29;20035;-86
2022/11/19 15:22:52;;;;;;;4.97;3.20;;;2.00;99.90;;;;;;4821128;29;20046;-86
2022/11/19 15:25:26;;;;;;;4.57;2.78;;;1.90;99.90;;;;;;4821446;29;20608;-86
2022/11/19 15:27:55;;;;;;;3.58;2.90;;;1.90;99.90;;;;;;4826551;29;20529;-86
2022/11/19 15:30:27;;;;;;;4.25;3.05;;;1.80;99.90;;;;;;4803082;29;20060;-86
2022/11/19 15:33:21;;;;;;;3.47;2.95;;;1.90;99.90;;;;;;4807172;29;20397;-86
2022/11/19 15:36:20;;;;;;;4.47;3.50;;;1.80;99.90;;;;;;4781534;29;20179;-86
2022/11/19 15:39:01;;;;;;;4.78;3.38;;;1.80;99.90;;;;;;4803116;29;20054;-85
2022/11/19 15:41:31;;;;;;;3.50;3.13;;;1.70;99.90;;;;;;4824492;29;20050;-86
2022/11/19 15:44:01;;;;;;;5.88;3.92;;;1.60;99.90;;;;;;4794509;29;20047;-86
2022/11/19 15:46:41;;;;;;;3.80;3.40;;;2.90;99.90;;;;;;4811942;29;20050;-86
2022/11/19 15:49:23;;;;;;;5.32;4.00;;;1.60;99.90;;;;;;4809219;29;20089;-85
2022/11/19 15:52:11;;;;;;;5.88;3.92;;;1.50;99.90;;;;;;4819721;29;20393;-85
2022/11/19 15:54:40;;;;;;;5.53;3.40;;;1.50;99.90;;;;;;4808703;29;20468;-86
2022/11/19 15:57:14;;;;;;;6.22;3.75;;;2.30;99.90;;;;;;4809727;29;20046;-85
2022/11/19 15:59:41;;;;;;;4.32;3.60;;;1.40;99.90;;;;;;4810275;29;20043;-86
2022/11/19 16:02:17;;;;;;;6.32;4.25;;;1.30;99.90;;;;;;4808426;29;20050;-86
2022/11/19 16:04:43;;;;;;;6.07;4.03;;;1.40;99.90;;;;;;4809997;29;20046;-86
2022/11/19 16:07:09;;;;;;;5.20;3.75;;;1.20;99.90;;;;;;4809554;29;20046;-85
2022/11/19 16:09:36;;;;;;;5.40;3.78;;;1.20;99.90;;;;;;4808865;29;20463;-85
2022/11/19 16:17:44;;;;;;;5.40;4.30;;;0.90;99.90;;;;;;4808524;29;20128;-86
2022/11/19 16:20:10;;;;;;;4.47;3.95;;;1.30;99.90;;;;;;4826429;29;20133;-86
2022/11/19 16:22:48;;;;;;;5.32;4.10;;;0.80;99.90;;;;;;4825449;29;20140;-86
2022/11/19 16:25:26;;;;;;;6.93;4.38;;;0.80;99.90;;;;;;4808904;29;20042;-85
2022/11/19 16:27:58;;;;;;;5.50;4.22;;;0.70;99.90;;;;;;4794163;29;20046;-85
2022/11/19 16:30:26;;;;;;;7.35;5.20;;;0.70;99.90;;;;;;4807043;29;20043;-85
2022/11/19 16:32:56;;;;;;;5.90;5.05;;;0.80;99.90;;;;;;4795563;29;20045;-86
2022/11/19 16:35:30;;;;;;;6.30;4.75;;;0.80;99.90;;;;;;4806599;29;20035;-86
2022/11/19 16:37:58;;;;;;;10.82;5.18;;;0.70;99.90;;;;;;4810531;29;20110;-86
2022/11/19 16:40:24;;;;;;;9.07;5.45;;;0.60;99.90;;;;;;4793393;29;20042;-85
2022/11/19 16:42:56;;;;;;;10.55;5.13;;;1.40;99.90;;;;;;4793128;29;20507;-85
2022/11/19 16:45:27;;;;;;;11.18;5.68;;;0.60;99.90;;;;;;4791028;29;20129;-85
2022/11/19 16:47:56;;;;;;;5.60;4.47;;;1.20;99.90;;;;;;4792719;29;20049;-86
2022/11/19 16:50:35;;;;;;;5.47;4.72;;;0.50;99.90;;;;;;4804473;29;20050;-85
2022/11/19 16:53:05;;;;;;;8.90;5.28;;;0.50;99.90;;;;;;4807026;29;20049;-86
2022/11/19 16:55:32;;;;;;;6.40;4.93;;;0.40;99.90;;;;;;4820094;29;20065;-85
2022/11/19 16:58:21;;;;;;;10.18;5.07;;;0.40;99.90;;;;;;4810218;29;20061;-86
2022/11/19 17:00:49;;;;;;;9.32;5.65;;;0.40;99.90;;;;;;4805525;29;20052;-85
2022/11/19 17:03:27;;;;;;;8.60;5.20;;;0.40;99.90;;;;;;4806358;29;20085;-85
2022/11/19 17:05:55;;;;;;;5.72;4.93;;;0.50;99.90;;;;;;4820577;29;20042;-86
2022/11/19 17:08:30;;;;;;;7.22;5.70;;;1.10;99.90;;;;;;4818070;29;20042;-84
2022/11/19 17:14:19;;;;;;;7.05;4.95;;;1.20;99.90;;;;;;4808348;29;20110;-85
2022/11/19 17:16:50;;;;;;;6.07;5.13;;;0.40;99.90;;;;;;4801911;29;20424;-84
2022/11/19 17:19:25;;;;;;;6.60;4.88;;;0.40;99.90;;;;;;4804938;29;20054;-84
2022/11/19 17:22:11;;;;;;;6.65;5.43;;;0.40;99.90;;;;;;4805863;29;20122;-85
2022/11/19 17:24:42;;;;;;;7.53;5.03;;;0.40;99.90;;;;;;4804167;29;20521;-86
2022/11/19 17:27:23;;;;;;;5.40;4.85;;;0.20;99.90;;;;;;4818713;29;20041;-87
2022/11/19 17:29:53;;;;;;;6.57;4.55;;;0.20;99.90;;;;;;4804885;29;20042;-84
2022/11/19 17:32:46;;;;;;;8.50;5.13;;;0.60;99.90;;;;;;4802986;29;20077;-86
2022/11/19 17:35:41;;;;;;;7.80;4.85;;;0.10;99.90;;;;;;4807506;29;20050;-84
2022/11/19 17:38:28;;;;;;;8.00;5.35;;;0.10;99.90;;;;;;4822541;29;20125;-84
2022/11/19 17:40:57;;;;;;;5.97;4.93;;;0.20;99.90;;;;;;4821721;29;20069;-85
2022/11/19 17:46:17;;;;;;;5.82;5.15;;;-0.10;99.90;;;;;;4817589;29;20122;-84
2022/11/19 17:48:47;;;;;;;5.82;5.05;;;-0.10;99.90;;;;;;4804481;29;20447;-83
2022/11/19 17:51:19;;;;;;;5.65;4.85;;;-0.10;99.90;;;;;;4800661;29;20042;-84
2022/11/19 17:53:51;;;;;;;8.00;4.97;;;-0.10;99.90;;;;;;4804666;29;20375;-85
2022/11/19 17:56:27;;;;;;;11.23;5.72;;;0.30;99.90;;;;;;4789146;29;20049;-85
2022/11/19 17:59:11;;;;;;;;;;;-0.10;99.90;;;;;;4790873;29;20046;-85
2022/11/19 18:01:47;;;;;;;14.85;5.95;;;-0.10;99.90;;;;;;4788447;29;20296;-85
2022/11/19 18:04:13;;;;;;;6.43;5.35;;;-0.20;99.90;;;;;;4786506;29;20094;-84
2022/11/19 18:06:40;;;;;;;6.72;5.03;;;-0.30;99.90;;;;;;4787687;29;20451;-85
2022/11/19 18:09:07;;;;;;;7.20;5.55;;;-0.30;99.90;;;;;;4789581;29;20080;-85
2022/11/19 18:11:33;;;;;;;5.60;5.03;;;-0.30;99.90;;;;;;4803393;29;20088;-85
2022/11/19 18:14:00;;;;;;;9.20;5.35;;;-0.40;99.90;;;;;;4801662;29;20057;-85
2022/11/19 18:16:32;;;;;;;6.40;5.43;;;-0.40;99.90;;;;;;4801984;29;20510;-85
2022/11/19 18:18:58;;;;;;;9.05;5.70;;;-0.30;99.90;;;;;;4804633;29;20140;-84
2022/11/19 18:21:26;;;;;;;9.02;5.80;;;-0.30;99.90;;;;;;4820184;29;20070;-84
2022/11/19 18:23:52;;;;;;;6.47;5.68;;;0.40;99.90;;;;;;4800872;29;20072;-84
2022/11/19 18:26:21;;;;;;;7.95;5.38;;;-0.20;99.90;;;;;;4788795;29;20107;-83
2022/11/19 18:28:47;;;;;;;7.15;5.35;;;-0.30;99.90;;;;;;4782871;29;20547;-83
2022/11/19 18:31:25;;;;;;;8.07;5.25;;;-0.50;99.90;;;;;;4815450;29;20050;-79
2022/11/19 18:34:00;;;;;;;11.55;6.38;;;-0.10;99.90;;;;;;4804958;29;20107;-83
2022/11/19 18:36:26;;;;;;;7.80;5.55;;;0.40;99.90;;;;;;4804725;29;20050;-83
2022/11/19 18:38:54;;;;;;;6.07;5.47;;;-0.50;99.90;;;;;;4801525;29;20460;-83
2022/11/19 18:41:20;;;;;;;9.05;6.18;;;-0.40;99.90;;;;;;4802643;29;20043;-83
2022/11/19 18:46:30;;;;;;;7.32;6.55;;;-0.50;99.90;;;;;;4816202;29;20140;-83
2022/11/19 18:48:56;;;;;;;15.85;6.32;;;-0.50;99.90;;;;;;4784383;29;20046;-83
2022/11/19 18:51:22;;;;;;;7.95;6.90;;;0.40;99.90;;;;;;4803037;29;20050;-83
2022/11/19 18:53:53;;;;;;;9.90;6.13;;;-0.50;99.90;;;;;;4801315;29;20043;-83
2022/11/19 18:56:18;;;;;;;8.23;6.63;;;-0.40;99.90;;;;;;4782695;29;20789;-83
2022/11/19 18:58:44;;;;;;;12.40;6.60;;;-0.50;99.90;;;;;;4800322;29;20047;-83
2022/11/19 19:01:11;;;;;;;12.65;6.80;;;-0.40;99.90;;;;;;4787793;29;20078;-83
2022/11/19 19:03:37;;;;;;;8.93;6.63;;;-0.40;99.90;;;;;;4801616;29;21623;-83
2022/11/19 19:06:24;;;;;;;7.13;6.32;;;-0.40;99.90;;;;;;4784738;29;20108;-83
2022/11/19 19:08:50;;;;;;;8.75;6.53;;;-0.40;99.90;;;;;;4802277;29;20165;-83
2022/11/19 19:13:59;;;;;;;10.43;7.28;;;-0.40;99.90;;;;;;4819454;29;20038;-83
2022/11/19 19:16:25;;;;;;;12.23;8.75;;;-0.30;99.90;;;;;;4788445;29;20406;-82
2022/11/19 19:18:51;;;;;;;9.48;7.63;;;-0.30;99.90;;;;;;4801939;29;20067;-85
2022/11/19 19:21:29;;;;;;;9.77;7.28;;;-0.50;99.90;;;;;;4802486;29;20043;-84
2022/11/19 19:27:39;;;;;;;7.45;6.60;;;0.00;99.90;;;;;;4823587;29;20099;-85
2022/11/19 19:34:11;;;;;;;11.45;8.07;;;-0.80;99.90;;;;;;4798759;29;20119;-83
2022/11/19 19:36:36;;;;;;;10.88;6.97;;;-0.90;99.90;;;;;;4809555;29;20107;-82
2022/11/19 19:39:02;;;;;;;10.07;6.45;;;-1.00;99.90;;;;;;4821227;29;20034;-83
2022/11/19 19:41:28;;;;;;;10.02;6.60;;;-1.00;99.90;;;;;;4807372;29;20045;-83
2022/11/19 19:43:56;;;;;;;10.13;7.15;;;-1.00;99.90;;;;;;4796627;29;20042;-83
2022/11/19 19:46:23;;;;;;;9.13;7.10;;;-1.00;99.90;;;;;;4827805;29;20131;-84
2022/11/19 19:48:53;;;;;;;12.18;8.70;;;-1.00;99.90;;;;;;4807267;29;20050;-83
2022/11/19 19:51:21;;;;;;;11.68;9.25;;;-1.00;99.90;;;;;;4810577;29;20179;-83
2022/11/19 19:53:47;;;;;;;13.55;7.45;;;-1.00;99.90;;;;;;4810964;29;20569;-82
2022/11/19 19:56:19;;;;;;;11.68;8.32;;;-1.00;99.90;;;;;;4811592;29;20042;-83
2022/11/19 19:58:46;;;;;;;12.82;9.57;;;-1.00;99.90;;;;;;4797035;29;20478;-83
2022/11/19 20:01:17;;;;;;;12.80;7.78;;;-1.10;99.90;;;;;;4812924;29;20046;-83
2022/11/19 20:03:44;;;;;;;9.32;7.57;;;-1.10;99.90;;;;;;4807235;29;20081;-82
2022/11/19 20:06:11;;;;;;;9.73;7.82;;;-1.10;99.90;;;;;;4807454;29;20057;-82
2022/11/19 20:08:37;;;;;;;9.52;7.88;;;-1.10;99.90;;;;;;4806731;29;20046;-83
2022/11/19 20:11:14;;;;;;;9.68;7.68;;;-1.10;99.90;;;;;;4789129;29;20132;-83
2022/11/19 20:13:41;;;;;;;11.52;7.95;;;-1.10;99.90;;;;;;4820788;29;20038;-83
2022/11/19 20:16:12;;;;;;;9.57;7.50;;;-1.00;99.90;;;;;;4824082;29;20054;-82
2022/11/19 20:18:38;;;;;;;8.85;6.82;;;-1.00;99.90;;;;;;4808515;29;20498;-83
2022/11/19 20:21:09;;;;;;;9.65;7.78;;;-0.50;99.90;;;;;;4804120;29;20053;-83
2022/11/19 20:23:35;;;;;;;12.00;7.22;;;-0.90;99.90;;;;;;4789581;29;20050;-82
2022/11/19 20:26:04;;;;;;;13.07;9.57;;;-0.90;99.90;;;;;;4807535;29;20042;-83
2022/11/19 20:28:30;;;;;;;14.57;9.02;;;-0.90;99.90;;;;;;4806961;29;20046;-82
2022/11/19 20:31:06;;;;;;;14.38;10.27;;;-0.80;99.90;;;;;;4789820;29;20525;-82
2022/11/19 20:33:32;;;;;;;14.32;11.27;;;-0.80;99.90;;;;;;4808459;29;20048;-82
2022/11/19 20:35:58;;;;;;;16.73;12.38;;;-0.80;99.90;;;;;;4821674;29;20053;-81
2022/11/19 20:38:24;;;;;;;12.07;9.43;;;-0.80;99.90;;;;;;4803599;29;20038;-83
2022/11/19 20:40:58;;;;;;;14.10;8.68;;;-0.90;99.90;;;;;;4824077;29;20109;-82
2022/11/19 20:46:12;;;;;;;11.65;8.73;;;-1.00;99.90;;;;;;4825700;29;20050;-83
2022/11/19 20:48:39;;;;;;;10.85;8.25;;;-1.00;99.90;;;;;;4793511;29;20108;-83
2022/11/19 20:51:05;;;;;;;13.65;8.55;;;-1.10;99.90;;;;;;4805331;29;20051;-81
2022/11/19 20:53:32;;;;;;;12.35;9.30;;;-1.10;99.90;;;;;;4792656;29;20561;-81
2022/11/19 20:56:46;;;;;;;10.93;8.57;;;-1.30;99.90;;;;;;4821286;29;20142;-81
2022/11/19 20:59:24;;;;;;;12.27;8.52;;;-0.80;99.90;;;;;;4818788;29;20149;-81
2022/11/19 21:01:51;;;;;;;11.60;8.57;;;-1.40;99.90;;;;;;4806508;29;20042;-81
2022/11/19 21:04:20;;;;;;;13.73;10.10;;;-1.40;99.90;;;;;;4817902;29;20051;-81
2022/11/19 21:07:01;;;;;;;13.70;9.43;;;-1.30;99.90;;;;;;4807727;29;20038;-81
2022/11/19 21:09:51;;;;;;;13.50;10.13;;;-1.30;99.90;;;;;;4793675;29;20050;-83
2022/11/19 21:17:14;;;;;;;11.98;9.10;;;-1.30;99.90;;;;;;4776075;29;20049;-82
2022/11/19 21:19:59;;;;;;;10.20;7.82;;;-1.40;99.90;;;;;;4805353;29;20049;-82
2022/11/19 21:22:25;;;;;;;11.63;7.50;;;-1.40;99.90;;;;;;4812559;29;20046;-82
2022/11/19 21:24:50;;;;;;;10.88;8.60;;;-1.40;99.90;;;;;;4806235;29;20119;-81
2022/11/19 21:27:16;;;;;;;11.35;8.15;;;-1.50;99.90;;;;;;4792882;29;20068;-81
2022/11/19 21:29:42;;;;;;;11.20;8.20;;;-1.50;99.90;;;;;;4792468;29;20044;-81
2022/11/19 21:32:07;;;;;;;11.10;7.18;;;-1.50;99.90;;;;;;4803895;29;20054;-81
2022/11/19 21:34:33;;;;;;;11.18;8.30;;;-1.50;99.90;;;;;;4803981;29;20034;-81
2022/11/19 21:36:58;;;;;;;8.80;7.50;;;-1.50;99.90;;;;;;4803914;29;20142;-81
2022/11/19 21:39:24;;;;;;;11.50;8.45;;;-1.40;99.90;;;;;;4804731;29;20505;-81
2022/11/19 21:41:50;;;;;;;10.40;8.55;;;-1.50;99.90;;;;;;4819787;29;20087;-81
2022/11/19 21:44:16;;;;;;;12.32;8.90;;;-1.30;99.90;;;;;;4789781;29;20125;-81
2022/11/19 21:46:41;;;;;;;13.57;8.75;;;-1.50;99.90;;;;;;4803250;29;20054;-80
2022/11/19 21:49:07;;;;;;;13.23;8.95;;;-1.60;99.90;;;;;;4802899;29;20042;-80
2022/11/19 21:51:33;;;;;;;10.80;8.38;;;-1.60;99.90;;;;;;4803124;29;20095;-80
2022/11/19 21:53:59;;;;;;;11.02;8.38;;;-1.70;99.90;;;;;;4805724;29;20042;-80
2022/11/19 21:56:25;;;;;;;10.48;8.10;;;-1.70;99.90;;;;;;4788630;29;20270;-80
2022/11/19 21:58:51;;;;;;;11.20;9.02;;;-1.70;99.90;;;;;;4804785;29;20057;-80
2022/11/19 22:01:17;;;;;;;12.02;8.90;;;-1.70;99.90;;;;;;4803613;29;20499;-80
2022/11/19 22:03:42;;;;;;;15.35;9.13;;;-1.60;99.90;;;;;;4804471;29;20699;-80
2022/11/19 22:06:09;;;;;;;14.18;9.55;;;-1.60;99.90;;;;;;4785134;29;20038;-80
2022/11/19 22:08:40;;;;;;;13.68;9.45;;;-1.30;99.90;;;;;;4820044;29;20092;-80
2022/11/19 22:13:52;;;;;;;11.27;9.27;;;-1.20;99.90;;;;;;4814380;29;20054;-80
2022/11/19 22:16:18;;;;;;;16.15;9.90;;;-1.50;99.90;;;;;;4804817;29;20050;-81
2022/11/19 22:18:44;;;;;;;10.43;8.15;;;-1.50;99.90;;;;;;4803189;29;20066;-81
2022/11/19 22:21:10;;;;;;;10.35;8.35;;;-1.60;99.90;;;;;;4807031;29;20371;-81
2022/11/19 22:23:35;;;;;;;10.68;8.48;;;-1.70;99.90;;;;;;4804294;29;20089;-80
2022/11/19 22:26:06;;;;;;;13.00;9.32;;;-1.70;99.90;;;;;;4809902;29;20074;-81
2022/11/19 22:28:31;;;;;;;10.50;8.55;;;-1.70;99.90;;;;;;4804107;29;20057;-81
2022/11/19 22:30:57;;;;;;;12.30;8.75;;;-1.70;99.90;;;;;;4804937;29;20039;-81
2022/11/19 22:33:22;;;;;;;11.35;8.88;;;-1.70;99.90;;;;;;4787092;29;20084;-81
2022/11/19 22:35:48;;;;;;;11.98;8.68;;;-1.70;99.90;;;;;;4785848;29;20046;-81
2022/11/19 22:38:14;;;;;;;11.60;8.85;;;-1.60;99.90;;;;;;4784984;29;20035;-81
2022/11/19 22:40:40;;;;;;;13.95;9.25;;;-1.50;99.90;;;;;;4801261;29;20122;-81
2022/11/19 22:43:05;;;;;;;12.40;9.52;;;-1.70;99.90;;;;;;4803122;29;20054;-81
2022/11/19 22:45:31;;;;;;;14.15;9.82;;;-1.50;99.90;;;;;;4818869;29;20046;-80
2022/11/19 22:47:56;;;;;;;12.63;9.88;;;-1.70;99.90;;;;;;4821722;29;20968;-81
2022/11/19 22:50:22;;;;;;;11.88;10.05;;;-1.30;99.90;;;;;;4801348;29;20454;-81
2022/11/19 22:52:48;;;;;;;13.43;10.40;;;-1.70;99.90;;;;;;4804921;29;20602;-81